Time;durP1;ratioP1;P1;durP2;ratioP2;P2;SDS_P1;SDS_P2;PMS_P1;PMS_P2;Temp;Humidity;BMP_temperature;BMP_pressure;BME280_temperature;BME280_humidity;BME280_pressure;Samples;Min_cycle;Max_cycle;Signal;HPM_P1;HPM_P2
2022/06/25 00:03:53;;;;;;;6.35;3.65;;;17.50;99.90;;;;;;10211546;28;20059;-86
2022/06/25 00:08:56;;;;;;;6.65;3.40;;;17.50;99.90;;;;;;10202694;28;20047;-86
2022/06/25 00:13:58;;;;;;;8.15;3.85;;;17.40;99.90;;;;;;10217274;28;20073;-86
2022/06/25 00:19:00;;;;;;;3.90;2.40;;;17.40;99.90;;;;;;10207865;28;20051;-86
2022/06/25 00:24:02;;;;;;;3.78;2.45;;;17.30;99.90;;;;;;10206655;28;20057;-87
2022/06/25 00:29:03;;;;;;;4.10;2.83;;;17.20;99.90;;;;;;10193952;28;20102;-87
2022/06/25 00:34:05;;;;;;;4.40;2.28;;;17.20;99.90;;;;;;10206178;28;20050;-87
2022/06/25 00:39:07;;;;;;;5.85;2.88;;;17.10;99.90;;;;;;10225866;28;20066;-87
2022/06/25 00:44:09;;;;;;;4.05;2.13;;;17.10;99.90;;;;;;10213995;28;20059;-87
2022/06/25 00:49:11;;;;;;;9.57;2.05;;;17.00;99.90;;;;;;10229489;28;20055;-86
2022/06/25 00:54:15;;;;;;;7.32;1.90;;;17.00;99.90;;;;;;10211324;28;20059;-86
2022/06/25 00:59:22;;;;;;;3.22;1.55;;;16.90;99.90;;;;;;10193517;28;20102;-86
2022/06/25 01:04:24;;;;;;;3.33;2.30;;;16.90;99.90;;;;;;10237031;28;20055;-87
2022/06/25 01:09:26;;;;;;;3.15;1.63;;;16.80;99.90;;;;;;10202109;28;20055;-87
2022/06/25 01:14:27;;;;;;;4.03;2.05;;;16.80;99.90;;;;;;10226188;28;20572;-87
2022/06/25 01:19:29;;;;;;;2.67;1.65;;;16.70;99.90;;;;;;10216477;28;20069;-87
2022/06/25 01:24:31;;;;;;;4.97;1.98;;;16.70;99.90;;;;;;10203064;28;20043;-87
2022/06/25 01:29:33;;;;;;;4.60;1.60;;;16.70;99.90;;;;;;10231203;28;20501;-87
2022/06/25 01:34:35;;;;;;;6.53;1.65;;;16.70;99.90;;;;;;10230199;28;20063;-87
2022/06/25 01:39:37;;;;;;;3.72;1.48;;;16.60;99.90;;;;;;10204949;28;20521;-87
2022/06/25 01:44:39;;;;;;;5.85;1.80;;;16.60;99.90;;;;;;10215609;28;20070;-87
2022/06/25 01:49:40;;;;;;;6.45;2.15;;;16.60;99.90;;;;;;10228755;28;20062;-86
2022/06/25 01:54:42;;;;;;;5.18;2.63;;;16.60;99.90;;;;;;10223203;28;20059;-86
2022/06/25 01:59:45;;;;;;;5.57;2.38;;;16.50;99.90;;;;;;10219202;28;20395;-87
2022/06/25 02:04:46;;;;;;;5.55;2.80;;;16.50;99.90;;;;;;10217235;28;20083;-87
2022/06/25 02:09:48;;;;;;;7.18;2.75;;;16.50;99.90;;;;;;10220454;28;20047;-86
2022/06/25 02:14:50;;;;;;;9.00;3.03;;;16.40;99.90;;;;;;10209564;28;20051;-87
2022/06/25 02:19:52;;;;;;;6.55;3.40;;;16.40;99.90;;;;;;10208241;28;20603;-87
2022/06/25 02:24:54;;;;;;;11.68;3.30;;;16.40;99.90;;;;;;10222507;29;20052;-87
2022/06/25 02:29:56;;;;;;;7.38;4.10;;;16.40;99.90;;;;;;10215522;28;20058;-87
2022/06/25 02:34:57;;;;;;;12.85;4.43;;;16.50;99.90;;;;;;10215669;28;20118;-87
2022/06/25 02:39:59;;;;;;;8.90;3.58;;;16.50;99.90;;;;;;10228252;28;20048;-87
2022/06/25 02:45:03;;;;;;;7.88;2.92;;;16.50;99.90;;;;;;10219271;28;20051;-87
2022/06/25 02:50:06;;;;;;;8.55;3.20;;;16.40;99.90;;;;;;10209700;28;20059;-87
2022/06/25 02:55:08;;;;;;;12.43;2.95;;;16.40;99.90;;;;;;10218206;28;20046;-87
2022/06/25 03:00:10;;;;;;;5.60;2.47;;;16.40;99.90;;;;;;10215607;28;20102;-86
2022/06/25 03:05:12;;;;;;;5.45;2.17;;;16.30;99.90;;;;;;10195344;28;20060;-87
2022/06/25 03:10:14;;;;;;;11.02;3.17;;;16.20;99.90;;;;;;10226176;28;20065;-87
2022/06/25 03:15:18;;;;;;;6.03;2.35;;;16.20;99.90;;;;;;10220809;29;20047;-85
2022/06/25 03:20:20;;;;;;;6.35;2.63;;;16.20;99.90;;;;;;10228818;28;20060;-85
2022/06/25 03:25:23;;;;;;;11.25;2.75;;;16.20;99.90;;;;;;10215700;28;20059;-85
2022/06/25 03:30:25;;;;;;;6.53;2.78;;;16.10;99.90;;;;;;10216359;28;20086;-85
2022/06/25 03:35:26;;;;;;;5.18;2.58;;;16.20;99.90;;;;;;10204701;28;20494;-85
2022/06/25 03:40:28;;;;;;;6.82;3.08;;;16.20;99.90;;;;;;10231931;28;20100;-86
2022/06/25 03:45:30;;;;;;;5.85;3.10;;;16.30;99.90;;;;;;10212056;28;20059;-86
2022/06/25 03:50:33;;;;;;;9.50;2.90;;;16.30;99.90;;;;;;10211556;28;20059;-86
2022/06/25 03:55:35;;;;;;;5.75;3.20;;;16.30;99.90;;;;;;10203238;28;20051;-85
2022/06/25 04:00:54;;;;;;;7.75;3.22;;;16.40;99.90;;;;;;10204056;28;20079;-85
2022/06/25 04:05:56;;;;;;;6.57;4.25;;;16.50;99.90;;;;;;10225476;28;20421;-86
2022/06/25 04:10:59;;;;;;;10.23;3.90;;;16.60;99.90;;;;;;10211843;28;20154;-85
2022/06/25 04:16:01;;;;;;;10.60;4.30;;;16.60;99.90;;;;;;10229804;28;20178;-85
2022/06/25 04:21:03;;;;;;;6.90;4.03;;;16.70;99.90;;;;;;10236327;28;20051;-86
2022/06/25 04:26:05;;;;;;;7.82;3.97;;;16.80;99.90;;;;;;10223642;28;20166;-86
2022/06/25 04:31:07;;;;;;;14.27;4.05;;;16.90;99.90;;;;;;10236591;28;20082;-85
2022/06/25 04:36:09;;;;;;;8.45;4.40;;;16.90;99.90;;;;;;10217027;28;20061;-85
2022/06/25 04:41:11;;;;;;;10.85;4.72;;;17.00;99.90;;;;;;10224892;29;20043;-85
2022/06/25 04:46:13;;;;;;;11.35;5.07;;;17.10;99.90;;;;;;10225810;28;20141;-86
2022/06/25 04:51:15;;;;;;;9.98;4.70;;;17.10;99.90;;;;;;10236836;28;20047;-87
2022/06/25 04:56:17;;;;;;;10.27;4.22;;;17.10;99.90;;;;;;10226087;28;20074;-85
2022/06/25 05:01:19;;;;;;;9.70;4.28;;;17.20;99.90;;;;;;10227657;28;20055;-85
2022/06/25 05:06:21;;;;;;;10.18;5.18;;;17.30;99.90;;;;;;10220760;28;20103;-85
2022/06/25 05:11:23;;;;;;;8.20;5.25;;;17.30;99.90;;;;;;10235250;28;20059;-86
2022/06/25 05:16:25;;;;;;;11.55;5.40;;;17.30;99.90;;;;;;10228713;28;20066;-86
2022/06/25 05:21:27;;;;;;;10.32;5.22;;;17.20;99.90;;;;;;10233334;28;20062;-86
2022/06/25 05:26:29;;;;;;;11.68;5.13;;;17.30;99.90;;;;;;10203475;28;20073;-86
2022/06/25 05:31:31;;;;;;;13.45;5.38;;;17.20;99.90;;;;;;10214823;28;20052;-86
2022/06/25 05:36:33;;;;;;;10.13;5.80;;;17.40;99.90;;;;;;10208852;28;20398;-86
2022/06/25 05:41:35;;;;;;;9.60;5.43;;;17.30;99.90;;;;;;10214374;28;20056;-86
2022/06/25 05:46:40;;;;;;;13.13;5.82;;;17.40;99.90;;;;;;10232069;28;20450;-85
2022/06/25 05:51:42;;;;;;;9.32;5.47;;;17.40;99.90;;;;;;10209092;28;20048;-85
2022/06/25 05:56:44;;;;;;;10.07;6.10;;;17.40;99.90;;;;;;10221183;28;20055;-87
2022/06/25 06:01:46;;;;;;;10.50;5.70;;;17.50;99.90;;;;;;10218438;28;20051;-86
2022/06/25 06:06:48;;;;;;;9.77;5.43;;;17.50;99.90;;;;;;10231637;28;20044;-86
2022/06/25 06:11:49;;;;;;;10.55;5.43;;;17.60;99.90;;;;;;10199084;28;20058;-87
2022/06/25 06:16:51;;;;;;;8.00;5.35;;;17.60;99.90;;;;;;10214519;28;20062;-86
2022/06/25 06:21:53;;;;;;;8.73;5.32;;;17.50;99.90;;;;;;10234876;28;20047;-86
2022/06/25 06:26:55;;;;;;;6.72;5.43;;;17.60;99.90;;;;;;10198770;28;20047;-86
2022/06/25 06:31:57;;;;;;;9.60;5.50;;;17.50;99.90;;;;;;10209205;28;20434;-86
2022/06/25 06:36:59;;;;;;;8.23;5.45;;;17.60;99.90;;;;;;10223336;28;20055;-86
2022/06/25 06:42:01;;;;;;;9.15;5.38;;;17.70;99.90;;;;;;10209531;28;20131;-86
2022/06/25 06:47:02;;;;;;;9.60;4.97;;;17.70;99.90;;;;;;10210569;29;20056;-86
2022/06/25 06:52:05;;;;;;;11.05;5.53;;;17.90;99.90;;;;;;10210667;28;20059;-86
2022/06/25 06:57:07;;;;;;;9.38;6.32;;;18.00;99.90;;;;;;10198634;28;20063;-86
2022/06/25 07:02:09;;;;;;;10.75;5.97;;;18.10;99.90;;;;;;10207603;28;20840;-86
2022/06/25 07:07:11;;;;;;;7.63;5.55;;;18.10;99.90;;;;;;10224275;28;21516;-86
2022/06/25 07:12:12;;;;;;;7.50;5.32;;;18.10;99.90;;;;;;10198983;28;20134;-86
2022/06/25 07:17:14;;;;;;;7.82;5.68;;;18.20;99.90;;;;;;10203598;28;20052;-86
2022/06/25 07:22:16;;;;;;;11.70;5.85;;;18.20;99.90;;;;;;10225918;28;20043;-86
2022/06/25 07:27:18;;;;;;;9.32;5.97;;;18.50;99.90;;;;;;10196946;28;20405;-86
2022/06/25 07:32:20;;;;;;;6.57;5.13;;;18.50;99.90;;;;;;10223362;28;20115;-87
2022/06/25 07:37:22;;;;;;;6.00;5.38;;;18.60;99.90;;;;;;10224528;28;20070;-86
2022/06/25 07:42:24;;;;;;;7.55;5.38;;;18.70;99.90;;;;;;10211996;28;20058;-87
2022/06/25 07:47:26;;;;;;;5.57;4.40;;;18.70;99.90;;;;;;10192824;28;20047;-87
2022/06/25 07:52:28;;;;;;;12.50;4.50;;;18.90;99.90;;;;;;10213890;29;20094;-87
2022/06/25 07:57:30;;;;;;;5.47;4.00;;;19.20;99.90;;;;;;10213536;28;20079;-88
2022/06/25 08:02:33;;;;;;;8.18;4.10;;;19.20;99.90;;;;;;10232506;28;20514;-87
2022/06/25 08:07:34;;;;;;;9.55;4.43;;;19.50;99.90;;;;;;10219932;28;20094;-87
2022/06/25 08:12:37;;;;;;;4.63;4.00;;;19.40;99.90;;;;;;10214699;28;20490;-87
2022/06/25 08:17:39;;;;;;;8.23;3.47;;;19.60;99.90;;;;;;10210525;28;20058;-87
2022/06/25 08:22:41;;;;;;;5.47;2.95;;;19.50;99.90;;;;;;10203600;29;20067;-88
2022/06/25 08:27:51;;;;;;;8.68;3.65;;;19.80;99.90;;;;;;10197460;28;20064;-87
2022/06/25 08:32:54;;;;;;;4.35;3.65;;;19.60;99.90;;;;;;10218054;28;20188;-87
2022/06/25 08:37:57;;;;;;;5.43;3.70;;;19.60;99.90;;;;;;10198280;28;20035;-87
2022/06/25 08:42:59;;;;;;;6.43;3.45;;;19.80;99.90;;;;;;10220511;28;20059;-87
2022/06/25 08:48:04;;;;;;;5.85;3.00;;;20.00;99.90;;;;;;10233960;28;20066;-87
2022/06/25 08:53:08;;;;;;;2.35;2.15;;;20.00;99.90;;;;;;10227413;29;20146;-87
2022/06/25 08:58:12;;;;;;;4.07;3.25;;;20.00;99.90;;;;;;10215276;28;20052;-87
2022/06/25 09:03:15;;;;;;;3.50;3.03;;;20.40;99.90;;;;;;10233748;28;20065;-87
2022/06/25 09:08:17;;;;;;;5.43;3.50;;;20.50;99.90;;;;;;10223628;28;20047;-87
2022/06/25 09:13:24;;;;;;;4.45;3.75;;;20.50;99.90;;;;;;10237886;28;20050;-87
2022/06/25 09:18:26;;;;;;;3.80;2.70;;;20.90;99.90;;;;;;10215144;28;20115;-90
2022/06/25 09:23:33;;;;;;;4.15;3.00;;;20.90;99.90;;;;;;10226953;28;20055;-91
2022/06/25 09:28:39;;;;;;;4.95;3.10;;;21.50;99.90;;;;;;10206978;28;20058;-87
2022/06/25 09:33:41;;;;;;;4.78;2.70;;;21.50;99.90;;;;;;10215263;28;20442;-87
2022/06/25 09:38:50;;;;;;;4.18;2.30;;;22.00;99.90;;;;;;10210935;28;20070;-87
2022/06/25 09:43:54;;;;;;;7.47;2.20;;;21.90;99.90;;;;;;10212155;28;20634;-87
2022/06/25 09:48:56;;;;;;;4.03;2.30;;;22.00;99.90;;;;;;10226171;28;20062;-87
2022/06/25 09:54:00;;;;;;;2.05;1.73;;;22.10;99.90;;;;;;10231368;28;20062;-87
2022/06/25 09:59:02;;;;;;;1.95;1.55;;;22.60;99.90;;;;;;10200809;28;20473;-87
2022/06/25 10:04:04;;;;;;;2.17;1.70;;;23.00;99.90;;;;;;10225812;28;20059;-87
2022/06/25 10:09:07;;;;;;;3.35;1.63;;;22.70;99.90;;;;;;10234423;28;20062;-87
2022/06/25 10:14:09;;;;;;;2.00;1.60;;;23.00;99.90;;;;;;10237291;28;20058;-87
2022/06/25 10:19:14;;;;;;;2.92;1.10;;;23.00;99.90;;;;;;10215836;29;20055;-87
2022/06/25 10:24:16;;;;;;;2.30;1.10;;;23.60;99.90;;;;;;10235614;28;20051;-87
2022/06/25 10:29:29;;;;;;;3.65;1.60;;;24.10;99.90;;;;;;10222730;28;20051;-87
2022/06/25 10:34:31;;;;;;;1.33;0.85;;;24.40;99.90;;;;;;10236237;28;20118;-87
2022/06/25 10:39:35;;;;;;;1.65;0.77;;;24.60;99.90;;;;;;10220605;28;20086;-87
2022/06/25 10:44:37;;;;;;;1.48;0.77;;;24.80;99.90;;;;;;10246825;28;20054;-88
2022/06/25 10:49:39;;;;;;;1.45;0.60;;;24.80;99.90;;;;;;10236896;28;20082;-88
2022/06/25 10:54:45;;;;;;;1.17;0.80;;;24.60;99.90;;;;;;10232351;29;20035;-88
2022/06/25 11:00:01;;;;;;;2.50;0.40;;;25.40;99.90;;;;;;10223224;28;20062;-87
2022/06/25 11:05:16;;;;;;;0.60;0.50;;;25.20;97.00;;;;;;10206861;28;20102;-88
2022/06/25 11:10:18;;;;;;;1.52;0.80;;;24.90;98.20;;;;;;10222019;28;20135;-87
2022/06/25 11:15:20;;;;;;;2.80;0.75;;;25.10;99.00;;;;;;10190340;28;21986;-87
2022/06/25 11:20:22;;;;;;;2.38;0.60;;;25.60;98.70;;;;;;10194973;28;20074;-87
2022/06/25 11:30:44;;;;;;;2.17;0.50;;;26.00;94.50;;;;;;10222648;28;20050;-87
2022/06/25 11:35:47;;;;;;;0.70;0.50;;;25.80;94.80;;;;;;10209999;28;20403;-87
2022/06/25 11:40:52;;;;;;;1.73;0.40;;;26.10;95.00;;;;;;10210981;29;20098;-87
2022/06/25 11:45:59;;;;;;;0.50;0.40;;;25.80;93.60;;;;;;10209033;28;20055;-87
2022/06/25 11:51:03;;;;;;;0.45;0.32;;;26.00;94.70;;;;;;10225792;29;20646;-87
2022/06/25 11:56:07;;;;;;;1.20;0.55;;;26.00;93.50;;;;;;10224410;28;20047;-87
2022/06/25 12:01:09;;;;;;;1.25;0.57;;;26.40;94.80;;;;;;10227512;28;20083;-88
2022/06/25 12:06:11;;;;;;;0.98;0.50;;;26.60;93.00;;;;;;10212988;29;20047;-86
2022/06/25 12:11:13;;;;;;;2.00;0.50;;;27.10;93.60;;;;;;10194498;28;20070;-87
2022/06/25 12:16:14;;;;;;;2.45;0.50;;;27.70;92.10;;;;;;10191077;28;20155;-88
2022/06/25 12:21:20;;;;;;;1.80;0.35;;;27.80;91.80;;;;;;10201571;28;20111;-86
2022/06/25 12:26:35;;;;;;;0.40;0.30;;;27.50;88.30;;;;;;10206499;28;20067;-86
2022/06/25 12:31:37;;;;;;;1.60;0.50;;;26.90;89.90;;;;;;10214938;28;20060;-86
2022/06/25 12:36:40;;;;;;;1.60;0.40;;;26.90;89.60;;;;;;10214619;28;20055;-86
2022/06/25 12:41:46;;;;;;;1.23;0.40;;;27.00;90.10;;;;;;10231355;28;20356;-87
2022/06/25 12:47:02;;;;;;;0.82;0.40;;;27.10;88.90;;;;;;10212658;28;20098;-86
2022/06/25 12:52:04;;;;;;;1.45;0.38;;;26.80;89.70;;;;;;10212345;29;20087;-87
2022/06/25 12:57:06;;;;;;;0.40;0.30;;;27.10;82.50;;;;;;10218644;28;20067;-86
2022/06/25 13:02:08;;;;;;;0.40;0.30;;;27.30;87.20;;;;;;10222411;28;20065;-86
2022/06/25 13:07:13;;;;;;;0.70;0.22;;;27.50;85.10;;;;;;10206020;28;20066;-87
2022/06/25 13:12:15;;;;;;;0.30;0.20;;;27.80;79.50;;;;;;10222599;28;20074;-86
2022/06/25 13:17:17;;;;;;;0.60;0.28;;;27.10;78.90;;;;;;10196319;28;20055;-87
2022/06/25 13:22:19;;;;;;;1.60;0.30;;;27.40;77.60;;;;;;10215002;28;20112;-87
2022/06/25 13:27:21;;;;;;;1.42;0.20;;;28.20;78.80;;;;;;10232047;28;20158;-87
2022/06/25 13:32:23;;;;;;;0.28;0.22;;;28.60;78.70;;;;;;10216827;28;20195;-86
2022/06/25 13:37:25;;;;;;;0.40;0.30;;;28.70;73.40;;;;;;10193074;28;20052;-86
2022/06/25 13:42:28;;;;;;;1.33;0.22;;;29.10;76.10;;;;;;10209576;28;20162;-87
2022/06/25 13:47:30;;;;;;;0.80;0.20;;;29.10;72.50;;;;;;10227859;28;20059;-87
2022/06/25 13:52:32;;;;;;;2.28;0.30;;;29.40;70.50;;;;;;10217797;28;20519;-86
2022/06/25 13:57:36;;;;;;;2.10;0.20;;;29.20;67.90;;;;;;10222434;28;20055;-87
2022/06/25 14:02:38;;;;;;;1.60;0.20;;;29.70;68.80;;;;;;10219270;28;20074;-87
2022/06/25 14:07:40;;;;;;;0.20;0.15;;;30.20;67.00;;;;;;10218994;28;20405;-86
2022/06/25 14:12:42;;;;;;;0.95;0.30;;;30.10;70.00;;;;;;10213030;28;20115;-88
2022/06/25 14:17:44;;;;;;;0.60;0.17;;;30.40;66.40;;;;;;10226437;28;20054;-87
2022/06/25 14:22:46;;;;;;;5.57;0.30;;;29.90;66.20;;;;;;10229643;28;20421;-87
2022/06/25 14:27:48;;;;;;;0.30;0.20;;;30.00;66.00;;;;;;10192695;28;20039;-86
2022/06/25 14:32:51;;;;;;;4.55;0.30;;;29.50;65.90;;;;;;10219946;28;20051;-83
2022/06/25 14:43:13;;;;;;;0.80;0.28;;;30.10;65.60;;;;;;10174215;29;20072;-85
2022/06/25 14:48:15;;;;;;;0.30;0.22;;;29.60;63.20;;;;;;10161225;29;20059;-86
2022/06/25 14:53:17;;;;;;;0.52;0.20;;;29.30;64.60;;;;;;10135996;29;20048;-86
2022/06/25 14:58:19;;;;;;;0.60;0.20;;;29.10;64.80;;;;;;10155141;29;20142;-86
2022/06/25 15:03:20;;;;;;;0.28;0.20;;;29.20;69.40;;;;;;10152837;29;20052;-85
2022/06/25 15:08:22;;;;;;;14.05;2.30;;;29.10;63.70;;;;;;10154936;29;20307;-86
2022/06/25 15:13:24;;;;;;;0.68;0.30;;;30.60;66.80;;;;;;10145684;29;20148;-87
2022/06/25 15:18:26;;;;;;;19.05;4.15;;;30.70;61.20;;;;;;10158382;29;20048;-85
2022/06/25 15:23:28;;;;;;;0.30;0.30;;;31.40;65.60;;;;;;10160314;29;20393;-86
2022/06/25 15:28:29;;;;;;;3.50;0.98;;;31.50;59.60;;;;;;10151166;29;20399;-84
2022/06/25 15:33:32;;;;;;;2.17;0.30;;;31.30;63.50;;;;;;10179549;29;20047;-85
2022/06/25 15:38:37;;;;;;;2.45;0.20;;;31.10;60.50;;;;;;10157470;28;20062;-86
2022/06/25 15:43:53;;;;;;;3.55;0.60;;;30.10;60.60;;;;;;10189392;28;20414;-86
2022/06/25 15:48:55;;;;;;;3.47;0.40;;;29.70;62.50;;;;;;10218983;28;20067;-86
2022/06/25 15:53:57;;;;;;;1.15;0.30;;;30.30;63.70;;;;;;10196713;28;20059;-86
2022/06/25 16:04:27;;;;;;;1.60;0.30;;;31.00;63.00;;;;;;10204965;28;20066;-86
2022/06/25 16:09:34;;;;;;;1.77;0.30;;;31.10;64.30;;;;;;10217653;28;20077;-86
2022/06/25 16:14:36;;;;;;;0.50;0.25;;;31.90;66.00;;;;;;10221604;28;20187;-87
2022/06/25 16:19:39;;;;;;;1.65;0.35;;;32.40;63.60;;;;;;10182696;28;20474;-86
2022/06/25 16:24:42;;;;;;;1.30;0.30;;;32.50;62.10;;;;;;10203061;28;20051;-86
2022/06/25 16:29:44;;;;;;;0.40;0.30;;;32.70;62.60;;;;;;10214894;28;20067;-86
2022/06/25 16:34:46;;;;;;;0.77;0.40;;;32.90;60.70;;;;;;10203101;28;20055;-86
2022/06/25 16:39:48;;;;;;;2.58;0.20;;;33.00;61.10;;;;;;10232464;28;20039;-87
2022/06/25 16:44:50;;;;;;;0.32;0.20;;;33.20;59.50;;;;;;10229095;28;20058;-86
2022/06/25 16:49:52;;;;;;;1.85;0.30;;;33.10;60.30;;;;;;10230651;28;20052;-87
2022/06/25 16:54:54;;;;;;;0.30;0.20;;;33.40;61.80;;;;;;10208191;28;20052;-87
2022/06/25 16:59:55;;;;;;;4.20;0.30;;;33.50;59.30;;;;;;10213426;28;20064;-86
2022/06/25 17:04:57;;;;;;;0.28;0.20;;;33.60;58.40;;;;;;10202669;28;20134;-87
2022/06/25 17:09:59;;;;;;;2.15;0.20;;;33.70;58.10;;;;;;10217571;28;20158;-86
2022/06/25 17:15:03;;;;;;;1.35;0.28;;;33.70;57.80;;;;;;10236286;28;20052;-87
2022/06/25 17:20:05;;;;;;;0.25;0.20;;;33.40;58.20;;;;;;10236120;28;20536;-88
2022/06/25 17:25:07;;;;;;;3.22;0.30;;;33.40;58.90;;;;;;10250118;28;20498;-87
2022/06/25 17:30:10;;;;;;;1.38;0.20;;;33.40;57.60;;;;;;10206685;28;20478;-86
2022/06/25 17:35:12;;;;;;;0.65;0.22;;;33.20;56.60;;;;;;10233772;28;20089;-86
2022/06/25 17:40:15;;;;;;;1.20;0.30;;;33.20;57.60;;;;;;10222152;28;20090;-87
2022/06/25 17:45:17;;;;;;;0.32;0.20;;;32.90;58.10;;;;;;10225032;28;20099;-87
2022/06/25 17:50:20;;;;;;;0.40;0.20;;;32.60;58.40;;;;;;10216913;28;20458;-86
2022/06/25 17:55:22;;;;;;;0.30;0.30;;;32.40;56.80;;;;;;10225907;28;20142;-86
2022/06/25 18:00:27;;;;;;;1.27;0.30;;;32.20;58.80;;;;;;10225017;28;20058;-86
2022/06/25 18:05:28;;;;;;;3.33;0.20;;;32.10;57.10;;;;;;10220513;28;20470;-85
2022/06/25 18:10:31;;;;;;;0.25;0.20;;;31.80;57.90;;;;;;10205137;28;20055;-85
2022/06/25 18:15:33;;;;;;;1.02;0.20;;;31.40;59.60;;;;;;10227121;28;20062;-85
2022/06/25 18:20:36;;;;;;;0.45;0.20;;;31.10;59.70;;;;;;10232660;28;20055;-86
2022/06/25 18:25:38;;;;;;;1.00;0.20;;;30.60;60.60;;;;;;10203748;28;20126;-86
2022/06/25 18:30:40;;;;;;;1.00;0.20;;;30.10;62.00;;;;;;10229052;28;20075;-87
2022/06/25 18:35:42;;;;;;;0.50;0.28;;;29.60;62.80;;;;;;10222188;28;20111;-86
2022/06/25 18:40:44;;;;;;;0.40;0.30;;;29.20;65.00;;;;;;10209201;28;20554;-86
2022/06/25 18:45:46;;;;;;;1.02;0.25;;;28.80;65.80;;;;;;10239732;28;20059;-85
2022/06/25 18:50:48;;;;;;;5.68;0.20;;;28.50;66.30;;;;;;10204938;28;20059;-85
2022/06/25 18:55:50;;;;;;;1.20;0.60;;;28.20;67.00;;;;;;10218415;28;20150;-84
2022/06/25 19:00:52;;;;;;;1.08;0.22;;;27.80;68.70;;;;;;10221137;28;20058;-85
2022/06/25 19:05:54;;;;;;;0.40;0.30;;;27.50;69.90;;;;;;10201485;28;20190;-86
2022/06/25 19:10:56;;;;;;;1.55;0.30;;;27.20;69.90;;;;;;10211138;28;20052;-86
2022/06/25 19:15:58;;;;;;;0.70;0.35;;;27.00;70.70;;;;;;10216166;28;20058;-85
2022/06/25 19:21:00;;;;;;;4.55;0.88;;;26.60;76.30;;;;;;10206830;28;20050;-87
2022/06/25 19:26:03;;;;;;;1.10;0.40;;;26.30;80.00;;;;;;10233274;28;20074;-85
2022/06/25 19:31:05;;;;;;;1.67;0.60;;;26.00;81.40;;;;;;10236081;28;20062;-84
2022/06/25 19:36:07;;;;;;;2.85;0.60;;;25.80;84.20;;;;;;10218271;28;20066;-86
2022/06/25 19:41:09;;;;;;;3.67;1.40;;;25.50;85.40;;;;;;10234603;28;20128;-85
2022/06/25 19:46:11;;;;;;;3.17;0.90;;;25.10;87.70;;;;;;10222592;28;20051;-85
2022/06/25 19:51:13;;;;;;;1.95;0.50;;;24.80;87.50;;;;;;10215727;28;20077;-85
2022/06/25 19:56:15;;;;;;;0.93;0.50;;;24.40;90.70;;;;;;10207475;28;20121;-84
2022/06/25 20:01:17;;;;;;;1.30;0.50;;;24.20;93.10;;;;;;10215358;28;20122;-84
2022/06/25 20:06:19;;;;;;;0.90;0.50;;;24.00;94.60;;;;;;10230806;28;20059;-82
2022/06/25 20:11:21;;;;;;;1.15;0.50;;;23.60;96.20;;;;;;10221172;28;20047;-83
2022/06/25 20:16:22;;;;;;;6.18;2.97;;;23.60;98.10;;;;;;10230272;28;20065;-84
2022/06/25 20:21:24;;;;;;;4.63;2.15;;;23.40;99.70;;;;;;10203163;28;20079;-82
2022/06/25 20:26:26;;;;;;;4.55;1.40;;;23.10;99.90;;;;;;10216265;28;20625;-83
2022/06/25 20:31:31;;;;;;;1.85;1.33;;;23.00;99.90;;;;;;10223816;28;20059;-83
2022/06/25 20:36:33;;;;;;;1.92;0.90;;;22.90;99.90;;;;;;10196562;28;20066;-82
2022/06/25 20:41:35;;;;;;;0.88;0.75;;;22.70;99.90;;;;;;10185066;28;20062;-84
2022/06/25 20:46:37;;;;;;;0.95;0.60;;;22.50;99.90;;;;;;10196403;29;20056;-83
2022/06/25 20:51:39;;;;;;;1.40;0.70;;;22.30;99.90;;;;;;10200273;29;20510;-82
2022/06/25 20:56:41;;;;;;;4.18;0.93;;;22.20;99.90;;;;;;10196766;28;20078;-84
2022/06/25 21:01:43;;;;;;;2.80;0.75;;;22.00;99.90;;;;;;10191430;28;20600;-84
2022/06/25 21:12:06;;;;;;;1.88;0.90;;;21.70;99.90;;;;;;10202132;28;20040;-84
2022/06/25 21:17:08;;;;;;;3.10;0.75;;;21.60;99.90;;;;;;10178292;28;20048;-84
2022/06/25 21:22:10;;;;;;;3.83;1.30;;;21.60;99.90;;;;;;10170833;29;20067;-84
2022/06/25 21:27:15;;;;;;;1.88;0.93;;;21.40;99.90;;;;;;10174673;28;20735;-84
2022/06/25 21:32:16;;;;;;;7.35;1.20;;;21.30;99.90;;;;;;10188262;29;20069;-84
2022/06/25 21:37:18;;;;;;;2.17;1.20;;;21.10;99.90;;;;;;10129847;28;1114875;-84
2022/06/25 21:48:43;;;;;;;6.15;1.20;;;20.90;99.90;;;;;;10193924;28;20052;-84
2022/06/25 21:53:45;;;;;;;1.95;1.05;;;20.80;99.90;;;;;;10206879;28;20131;-83
2022/06/25 21:58:47;;;;;;;1.20;0.90;;;20.60;99.90;;;;;;10169399;28;20063;-83
2022/06/25 22:03:49;;;;;;;1.77;1.10;;;20.60;99.90;;;;;;10199959;29;20056;-83
2022/06/25 22:08:51;;;;;;;4.55;1.52;;;20.50;99.90;;;;;;10194079;29;20059;-83
2022/06/25 22:13:53;;;;;;;7.95;1.05;;;20.40;99.90;;;;;;10183131;29;20053;-83
2022/06/25 22:18:55;;;;;;;1.50;1.00;;;20.40;99.90;;;;;;10207183;29;20115;-83
2022/06/25 22:24:03;;;;;;;3.75;1.25;;;20.20;99.90;;;;;;10205456;28;20052;-83
2022/06/25 22:29:05;;;;;;;2.80;1.30;;;20.10;99.90;;;;;;10196528;28;20058;-83
2022/06/25 22:34:07;;;;;;;3.75;1.60;;;19.90;99.90;;;;;;10204800;28;20060;-84
2022/06/25 22:39:09;;;;;;;5.40;1.75;;;19.90;99.90;;;;;;10214447;29;20079;-83
2022/06/25 22:44:11;;;;;;;4.57;3.40;;;19.80;99.90;;;;;;10224608;28;20055;-87
2022/06/25 22:49:14;;;;;;;6.07;3.08;;;19.80;99.90;;;;;;10224546;28;20048;-88
2022/06/25 22:54:16;;;;;;;6.15;3.10;;;19.70;99.90;;;;;;10187744;29;20082;-89
2022/06/25 22:59:19;;;;;;;6.72;2.65;;;19.60;99.90;;;;;;10188171;28;20079;-88
2022/06/25 23:04:22;;;;;;;5.03;1.85;;;19.50;99.90;;;;;;10202940;29;20106;-86
2022/06/25 23:09:25;;;;;;;2.72;1.10;;;19.40;99.90;;;;;;10222576;28;20097;-88
2022/06/25 23:14:49;;;;;;;3.17;1.10;;;19.30;99.90;;;;;;10205943;28;20059;-88
2022/06/25 23:19:52;;;;;;;2.00;1.05;;;19.30;99.90;;;;;;10150486;28;20127;-88
2022/06/25 23:24:56;;;;;;;0.98;0.88;;;19.20;99.90;;;;;;10192916;28;20071;-88
2022/06/25 23:29:59;;;;;;;8.68;1.40;;;19.20;99.90;;;;;;10150402;29;20059;-88
2022/06/25 23:35:03;;;;;;;3.30;1.17;;;19.30;99.90;;;;;;10181832;28;20055;-88
2022/06/25 23:40:06;;;;;;;2.00;1.20;;;19.20;99.90;;;;;;10147420;28;20055;-87
2022/06/25 23:45:08;;;;;;;4.65;1.50;;;19.30;99.90;;;;;;10222450;28;20058;-88
2022/06/25 23:50:10;;;;;;;1.45;1.10;;;19.30;99.90;;;;;;10224218;28;20085;-88
2022/06/25 23:55:12;;;;;;;3.80;1.67;;;19.30;99.90;;;;;;10221048;28;20063;-88
